Time;durP1;ratioP1;P1;durP2;ratioP2;P2;SDS_P1;SDS_P2;PMS_P1;PMS_P2;Temp;Humidity;BMP_temperature;BMP_pressure;BME280_temperature;BME280_humidity;BME280_pressure;Samples;Min_cycle;Max_cycle;Signal;HPM_P1;HPM_P2
2023/03/06 00:00:42;;;;;;;9.47;4.23;;;;;;;-0.80;100.00;95567.47;10372021;28;20229;-62
2023/03/06 00:05:43;;;;;;;5.23;3.77;;;;;;;-0.86;100.00;95549.94;10371701;28;20250;-63
2023/03/06 00:10:43;;;;;;;6.63;4.80;;;;;;;-0.96;100.00;95555.75;10371367;28;20703;-64
2023/03/06 00:15:44;;;;;;;7.50;4.43;;;;;;;-0.95;100.00;95556.56;10371664;28;20282;-63
2023/03/06 00:20:45;;;;;;;7.47;4.43;;;;;;;-0.88;100.00;95557.75;10370335;28;20324;-63
2023/03/06 00:25:45;;;;;;;8.07;4.43;;;;;;;-0.80;100.00;95555.41;10371413;28;20565;-62
2023/03/06 00:30:46;;;;;;;8.73;4.63;;;;;;;-0.77;100.00;95550.03;10370689;28;20628;-63
2023/03/06 00:35:46;;;;;;;6.90;4.20;;;;;;;-0.72;100.00;95542.81;10385793;28;20799;-64
2023/03/06 00:40:47;;;;;;;7.87;5.60;;;;;;;-0.77;100.00;95531.25;10370353;28;20267;-63
2023/03/06 00:45:47;;;;;;;8.43;4.43;;;;;;;-0.72;100.00;95529.13;10370292;28;20257;-63
2023/03/06 00:50:47;;;;;;;6.47;5.00;;;;;;;-0.78;100.00;95524.44;10385806;28;20212;-62
2023/03/06 00:55:49;;;;;;;11.37;5.77;;;;;;;-0.86;100.00;95521.66;10369978;28;20356;-61
2023/03/06 01:00:49;;;;;;;8.17;4.70;;;;;;;-0.89;100.00;95520.13;10370005;28;20681;-63
2023/03/06 01:05:49;;;;;;;9.47;4.73;;;;;;;-0.85;100.00;95511.25;10385221;28;20267;-62
2023/03/06 01:10:50;;;;;;;6.50;4.50;;;;;;;-0.88;100.00;95506.34;10369749;28;20209;-61
2023/03/06 01:15:50;;;;;;;8.00;5.03;;;;;;;-0.86;100.00;95507.03;10369846;28;20217;-62
2023/03/06 01:20:50;;;;;;;9.10;5.30;;;;;;;-0.86;100.00;95499.31;10368904;28;20312;-61
2023/03/06 01:25:51;;;;;;;11.60;5.23;;;;;;;-0.83;100.00;95498.28;10369651;28;20189;-62
2023/03/06 01:30:53;;;;;;;8.33;5.43;;;;;;;-0.79;100.00;95497.94;10369571;28;20259;-62
2023/03/06 01:35:54;;;;;;;13.03;5.63;;;;;;;-0.80;100.00;95482.63;10384378;28;20304;-62
2023/03/06 01:40:54;;;;;;;7.90;5.70;;;;;;;-0.89;100.00;95484.13;10369372;28;20279;-63
2023/03/06 01:46:29;;;;;;;10.60;6.33;;;;;;;-0.83;100.00;95493.94;10369206;28;20190;-63
2023/03/06 01:51:37;;;;;;;10.20;6.17;;;;;;;-0.87;100.00;95476.28;10369368;28;20201;-63
2023/03/06 01:56:39;;;;;;;10.40;6.27;;;;;;;-0.81;100.00;95479.25;10373514;28;20233;-63
2023/03/06 02:01:40;;;;;;;9.57;5.60;;;;;;;-0.85;100.00;95464.16;10375177;28;20214;-64
2023/03/06 02:06:43;;;;;;;10.87;6.33;;;;;;;-0.89;100.00;95461.00;10376237;28;20201;-63
2023/03/06 02:11:45;;;;;;;11.80;6.73;;;;;;;-1.01;100.00;95454.22;10376191;28;20296;-63
2023/03/06 02:16:45;;;;;;;9.87;6.50;;;;;;;-1.24;100.00;95449.09;10374938;28;20224;-63
2023/03/06 02:21:46;;;;;;;11.13;7.57;;;;;;;-1.30;100.00;95449.53;10373822;28;20576;-62
2023/03/06 02:26:47;;;;;;;10.93;6.90;;;;;;;-1.38;100.00;95450.09;10374684;28;20189;-62
2023/03/06 02:31:47;;;;;;;10.27;6.43;;;;;;;-1.45;100.00;95441.22;10373916;28;20275;-62
2023/03/06 02:36:50;;;;;;;11.80;6.60;;;;;;;-1.54;100.00;95437.59;10375155;28;20213;-62
2023/03/06 02:41:50;;;;;;;12.87;6.63;;;;;;;-1.56;100.00;95438.63;10373639;28;20244;-62
2023/03/06 02:46:52;;;;;;;12.83;6.63;;;;;;;-1.63;100.00;95436.50;10373297;28;20227;-62
2023/03/06 02:51:52;;;;;;;12.43;6.47;;;;;;;-1.66;100.00;95428.22;10374943;28;20213;-62
2023/03/06 02:56:53;;;;;;;8.10;5.50;;;;;;;-1.75;100.00;95422.00;10374031;28;20588;-62
2023/03/06 03:01:53;;;;;;;10.93;5.57;;;;;;;-1.76;100.00;95422.94;10374352;28;20609;-61
2023/03/06 03:06:53;;;;;;;16.20;7.03;;;;;;;-1.83;100.00;95416.63;10372969;28;20190;-61
2023/03/06 03:11:54;;;;;;;11.20;6.07;;;;;;;-1.98;100.00;95419.41;10373939;28;20201;-61
2023/03/06 03:16:54;;;;;;;10.30;6.70;;;;;;;-2.01;100.00;95419.59;10372695;28;20716;-62
2023/03/06 03:21:55;;;;;;;8.93;5.27;;;;;;;-2.12;100.00;95416.19;10371646;28;20774;-61
2023/03/06 03:26:56;;;;;;;11.50;7.53;;;;;;;-2.18;100.00;95415.69;10372549;28;20655;-62
2023/03/06 03:31:58;;;;;;;18.33;12.47;;;;;;;-2.19;100.00;95410.66;10388375;28;20216;-62
2023/03/06 03:37:00;;;;;;;13.63;8.43;;;;;;;-2.26;100.00;95401.78;10372980;28;20213;-62
2023/03/06 03:42:00;;;;;;;46.57;22.90;;;;;;;-2.30;100.00;95395.22;10371621;28;20612;-62
2023/03/06 03:47:01;;;;;;;27.70;14.70;;;;;;;-2.32;100.00;95395.34;10387640;28;20576;-62
2023/03/06 03:52:03;;;;;;;11.77;7.23;;;;;;;-2.41;100.00;95393.44;10371567;28;20641;-62
2023/03/06 03:57:07;;;;;;;13.07;7.57;;;;;;;-2.36;100.00;95384.50;10370847;28;20217;-61
2023/03/06 04:02:11;;;;;;;7.83;5.00;;;;;;;-2.38;100.00;95380.41;10373848;28;20620;-61
2023/03/06 04:07:20;;;;;;;11.50;7.40;;;;;;;-2.42;100.00;95374.69;10428398;28;20189;-61
2023/03/06 04:12:21;;;;;;;12.50;7.40;;;;;;;-2.50;100.00;95366.69;10427694;28;20299;-62
2023/03/06 04:17:22;;;;;;;10.30;6.03;;;;;;;-2.50;100.00;95366.69;10427122;28;20180;-61
2023/03/06 04:22:22;;;;;;;12.10;6.80;;;;;;;-2.48;100.00;95364.03;10427996;28;20240;-61
2023/03/06 04:27:23;;;;;;;13.53;7.33;;;;;;;-2.60;100.00;95360.63;10412107;28;20326;-60
2023/03/06 04:32:23;;;;;;;15.27;7.13;;;;;;;-2.65;100.00;95358.34;10427197;28;20682;-62
2023/03/06 04:37:25;;;;;;;11.03;7.03;;;;;;;-2.75;100.00;95358.19;10427459;28;20211;-62
2023/03/06 04:42:26;;;;;;;12.17;7.33;;;;;;;-2.63;100.00;95361.63;10427002;28;20237;-62
2023/03/06 04:47:26;;;;;;;16.17;8.10;;;;;;;-2.52;100.00;95353.19;10411350;28;20266;-62
2023/03/06 04:52:27;;;;;;;13.17;7.00;;;;;;;-2.56;100.00;95341.50;10411161;28;20208;-62
2023/03/06 04:57:27;;;;;;;13.87;6.20;;;;;;;-2.62;100.00;95334.25;10411316;28;20250;-62
2023/03/06 05:02:27;;;;;;;9.17;5.43;;;;;;;-2.62;100.00;95332.53;10410829;28;20239;-62
2023/03/06 05:07:28;;;;;;;9.63;5.53;;;;;;;-2.68;100.00;95320.13;10411414;28;20247;-62
2023/03/06 05:12:28;;;;;;;8.57;4.13;;;;;;;-2.69;100.00;95327.00;10410371;28;20209;-62
2023/03/06 05:17:29;;;;;;;13.13;6.30;;;;;;;-2.68;100.00;95320.13;10411249;28;20185;-62
2023/03/06 05:22:29;;;;;;;10.77;6.30;;;;;;;-2.68;100.00;95322.69;10410529;28;20209;-62
2023/03/06 05:27:30;;;;;;;8.67;4.50;;;;;;;-2.67;100.00;95314.06;10411972;28;20192;-62
2023/03/06 05:32:30;;;;;;;13.00;7.47;;;;;;;-2.62;100.00;95314.56;10418927;28;20219;-62
2023/03/06 05:37:31;;;;;;;10.37;5.50;;;;;;;-2.67;100.00;95314.06;10418268;28;20262;-61
2023/03/06 05:42:31;;;;;;;9.93;6.13;;;;;;;-2.62;100.00;95299.19;10418542;28;20228;-62
2023/03/06 05:47:32;;;;;;;11.63;6.73;;;;;;;-2.51;100.00;95312.03;10418170;28;20200;-62
2023/03/06 05:52:32;;;;;;;12.57;7.40;;;;;;;-2.48;100.00;95303.31;10418183;28;20223;-62
2023/03/06 05:57:32;;;;;;;13.43;6.03;;;;;;;-2.43;100.00;95306.38;10417927;28;20199;-62
2023/03/06 06:02:33;;;;;;;10.40;6.33;;;;;;;-2.30;100.00;95300.34;10417617;28;20205;-62
2023/03/06 06:07:33;;;;;;;13.67;6.90;;;;;;;-2.24;100.00;95290.44;10417665;28;20223;-62
2023/03/06 06:12:34;;;;;;;9.87;6.00;;;;;;;-2.18;100.00;95286.59;10417103;28;20209;-61
2023/03/06 06:17:34;;;;;;;14.27;8.97;;;;;;;-2.07;100.00;95285.81;10417395;28;20196;-62
2023/03/06 06:22:36;;;;;;;14.97;9.57;;;;;;;-2.07;100.00;95281.47;10416846;28;20219;-62
2023/03/06 06:27:37;;;;;;;14.90;7.00;;;;;;;-1.90;100.00;95274.28;10416752;28;20216;-62
2023/03/06 06:32:38;;;;;;;16.40;9.30;;;;;;;-1.82;100.00;95275.34;10416514;28;20223;-62
2023/03/06 06:37:39;;;;;;;12.97;8.67;;;;;;;-1.72;100.00;95270.31;10416349;28;20251;-62
2023/03/06 06:42:39;;;;;;;13.00;7.30;;;;;;;-1.64;100.00;95274.88;10456492;22;20306;-64
2023/03/06 06:47:40;;;;;;;14.80;7.63;;;;;;;-1.51;100.00;95267.06;10415768;28;20251;-63
2023/03/06 06:52:40;;;;;;;14.23;7.97;;;;;;;-1.55;100.00;95256.19;10416004;28;20220;-64
2023/03/06 06:57:41;;;;;;;12.17;6.90;;;;;;;-1.33;100.00;95255.34;10415848;28;20635;-65
2023/03/06 07:02:41;;;;;;;13.57;7.33;;;;;;;-1.23;100.00;95252.88;10415760;28;20721;-64
2023/03/06 07:07:43;;;;;;;15.07;7.87;;;;;;;-1.04;100.00;95248.84;10415544;28;20207;-64
2023/03/06 07:12:44;;;;;;;12.43;7.50;;;;;;;-0.95;100.00;95240.41;10415252;28;20244;-64
2023/03/06 07:17:44;;;;;;;15.57;7.93;;;;;;;-1.06;100.00;95250.72;10415402;28;20205;-64
2023/03/06 07:22:45;;;;;;;12.00;6.30;;;;;;;-0.95;100.00;95242.97;10414774;28;20296;-64
2023/03/06 07:27:45;;;;;;;14.63;7.20;;;;;;;-0.88;100.00;95246.69;10414767;28;20203;-64
2023/03/06 07:32:45;;;;;;;13.87;7.90;;;;;;;-0.88;100.00;95245.91;10414474;28;20291;-65
2023/03/06 07:37:46;;;;;;;12.73;7.80;;;;;;;-0.88;100.00;95251.84;10414458;28;20220;-64
2023/03/06 07:42:47;;;;;;;17.67;7.67;;;;;;;-0.77;100.00;95243.25;10413735;28;20280;-64
2023/03/06 07:47:51;;;;;;;20.07;10.40;;;;;;;-0.90;100.00;95248.59;10412695;28;20572;-64
2023/03/06 07:52:52;;;;;;;17.20;9.70;;;;;;;-0.60;100.00;95252.19;10413611;28;20218;-65
2023/03/06 07:57:53;;;;;;;17.27;9.23;;;;;;;-0.60;100.00;95247.03;10413566;28;20181;-65
2023/03/06 08:02:53;;;;;;;16.07;9.13;;;;;;;-0.54;100.00;95231.13;10413480;28;20258;-64
2023/03/06 08:07:53;;;;;;;15.23;8.20;;;;;;;-0.35;100.00;95225.31;10413056;28;20291;-66
2023/03/06 08:12:54;;;;;;;19.67;9.90;;;;;;;-0.48;100.00;95224.66;10412851;28;20268;-68
2023/03/06 08:17:54;;;;;;;19.30;7.97;;;;;;;-0.13;100.00;95229.47;10412889;28;20200;-64
2023/03/06 08:22:55;;;;;;;19.50;11.90;;;;;;;-0.56;100.00;95238.97;10412983;28;20239;-66
2023/03/06 08:27:55;;;;;;;13.93;6.47;;;;;;;-0.33;100.00;95225.97;10412998;28;20641;-66
2023/03/06 08:32:55;;;;;;;16.93;9.03;;;;;;;-0.28;100.00;95238.47;10412462;28;20221;-66
2023/03/06 08:37:56;;;;;;;20.87;10.63;;;;;;;-0.26;100.00;95234.84;10412755;28;20200;-67
2023/03/06 08:42:56;;;;;;;19.50;11.37;;;;;;;-0.26;100.00;95231.44;10412038;28;20237;-65
2023/03/06 08:47:56;;;;;;;19.37;8.33;;;;;;;-0.10;100.00;95234.38;10412299;28;20197;-66
2023/03/06 08:52:57;;;;;;;19.10;8.53;;;;;;;0.15;100.00;95234.88;10411957;28;20239;-66
2023/03/06 08:57:57;;;;;;;16.53;9.57;;;;;;;0.21;99.06;95224.06;10411945;28;20211;-65
2023/03/06 09:02:58;;;;;;;19.67;10.17;;;;;;;0.19;99.93;95238.84;10411454;28;20212;-65
2023/03/06 09:07:58;;;;;;;16.90;10.80;;;;;;;0.10;100.00;95240.44;10411678;28;20195;-64
2023/03/06 09:12:59;;;;;;;18.93;9.10;;;;;;;0.19;100.00;95254.28;10411901;28;20225;-64
2023/03/06 09:17:59;;;;;;;19.37;12.13;;;;;;;0.00;100.00;95249.88;10411558;28;20199;-64
2023/03/06 09:23:00;;;;;;;22.57;11.40;;;;;;;0.30;100.00;95246.47;10411834;28;20627;-65
2023/03/06 09:28:00;;;;;;;18.47;10.33;;;;;;;0.66;100.00;95248.66;10411433;28;20693;-64
2023/03/06 09:33:00;;;;;;;20.47;10.73;;;;;;;0.82;100.00;95241.19;10411142;28;20471;-64
2023/03/06 09:38:01;;;;;;;18.97;11.93;;;;;;;0.42;100.00;95230.94;10411403;28;20537;-65
2023/03/06 09:43:01;;;;;;;17.03;9.43;;;;;;;1.20;100.00;95238.81;10408867;28;20625;-65
2023/03/06 09:48:10;;;;;;;22.47;11.60;;;;;;;0.72;99.99;95232.66;10410632;28;20547;-64
2023/03/06 09:53:40;;;;;;;22.70;12.00;;;;;;;0.61;100.00;95236.13;10409513;28;20227;-62
2023/03/06 09:58:46;;;;;;;20.53;12.27;;;;;;;0.65;100.00;95234.13;10410625;28;20744;-64
2023/03/06 10:03:51;;;;;;;19.23;11.33;;;;;;;1.08;100.00;95224.41;10409513;28;20224;-63
2023/03/06 10:09:06;;;;;;;17.17;10.33;;;;;;;0.76;100.00;95236.56;10409257;28;20198;-65
2023/03/06 10:14:25;;;;;;;20.73;11.23;;;;;;;1.20;98.88;95216.41;10409630;28;20722;-61
2023/03/06 10:19:32;;;;;;;21.47;12.33;;;;;;;0.62;99.31;95224.06;10417750;28;20693;-64
2023/03/06 10:24:51;;;;;;;20.77;11.70;;;;;;;1.04;100.00;95227.28;10417461;28;20187;-64
2023/03/06 10:30:02;;;;;;;21.27;12.30;;;;;;;1.09;98.80;95210.56;10416898;28;20220;-63
2023/03/06 10:35:11;;;;;;;16.20;8.43;;;;;;;2.22;94.62;95181.41;10416384;28;20308;-64
2023/03/06 10:40:18;;;;;;;18.13;11.67;;;;;;;2.11;90.97;95163.50;10415485;28;20239;-65
2023/03/06 10:45:18;;;;;;;18.90;9.80;;;;;;;1.85;93.43;95189.94;10416824;28;20531;-65
2023/03/06 10:50:26;;;;;;;20.47;10.53;;;;;;;1.86;90.98;95163.19;10416393;28;20221;-64
2023/03/06 10:55:29;;;;;;;18.77;11.37;;;;;;;1.55;92.65;95185.84;10416495;28;20244;-63
2023/03/06 11:00:36;;;;;;;15.93;9.63;;;;;;;2.10;92.02;95175.63;10415999;28;20308;-65
2023/03/06 11:05:37;;;;;;;18.73;12.17;;;;;;;0.79;95.63;95213.13;10415163;28;20200;-67
2023/03/06 11:10:37;;;;;;;23.90;12.17;;;;;;;0.86;100.00;95241.78;10417090;28;20216;-68
2023/03/06 11:15:38;;;;;;;21.43;11.43;;;;;;;1.24;100.00;95225.50;10415935;28;20225;-66
2023/03/06 11:20:40;;;;;;;15.57;10.03;;;;;;;1.55;99.73;95209.88;10415296;28;20294;-67
2023/03/06 11:25:49;;;;;;;17.33;11.27;;;;;;;1.23;98.85;95208.41;10415405;28;20258;-67
2023/03/06 11:30:54;;;;;;;18.57;9.53;;;;;;;1.81;100.00;95240.25;10415162;28;20226;-67
2023/03/06 11:36:04;;;;;;;20.60;10.83;;;;;;;1.22;100.00;95216.28;10414820;28;20367;-69
2023/03/06 11:41:12;;;;;;;15.20;9.57;;;;;;;1.91;100.00;95201.50;10396407;28;20637;-68
2023/03/06 11:46:24;;;;;;;17.03;9.77;;;;;;;1.64;100.00;95197.91;10414420;28;20690;-68
2023/03/06 11:51:27;;;;;;;18.93;11.27;;;;;;;1.20;100.00;95200.13;10412952;28;20574;-68
2023/03/06 11:56:36;;;;;;;18.83;10.00;;;;;;;1.11;100.00;95214.63;10412434;28;20216;-68
2023/03/06 12:02:12;;;;;;;14.40;9.17;;;;;;;0.94;100.00;95220.47;10413547;28;20213;-68
2023/03/06 12:07:54;;;;;;;21.77;11.80;;;;;;;1.24;100.00;95216.94;10413516;28;20188;-69
2023/03/06 12:13:04;;;;;;;20.00;10.87;;;;;;;1.65;100.00;95207.25;10390011;28;20694;-66
2023/03/06 12:18:14;;;;;;;20.30;11.50;;;;;;;2.60;100.00;95189.91;10413328;28;20315;-67
2023/03/06 12:23:47;;;;;;;18.23;11.73;;;;;;;1.35;100.00;95154.91;10411940;28;20204;-67
2023/03/06 12:29:06;;;;;;;18.00;10.77;;;;;;;2.01;100.00;95175.66;10410383;28;20208;-67
2023/03/06 12:34:58;;;;;;;16.60;10.60;;;;;;;1.53;100.00;95136.09;10412525;28;20712;-67
2023/03/06 12:40:20;;;;;;;17.00;10.27;;;;;;;1.99;100.00;95147.41;10401603;23;20263;-65
2023/03/06 12:45:31;;;;;;;19.13;10.73;;;;;;;2.94;100.00;95139.34;10408042;28;20219;-64
2023/03/06 12:50:35;;;;;;;17.93;11.07;;;;;;;2.40;99.01;95140.09;10412169;28;20251;-64
2023/03/06 12:55:41;;;;;;;16.07;10.27;;;;;;;2.83;98.87;95135.19;10412137;28;20693;-64
2023/03/06 13:01:04;;;;;;;14.23;9.57;;;;;;;3.61;95.71;95115.56;10410543;28;20583;-64
2023/03/06 13:06:30;;;;;;;15.50;10.43;;;;;;;3.89;94.30;95117.03;10411768;28;20764;-64
2023/03/06 13:12:07;;;;;;;16.70;10.10;;;;;;;4.02;97.57;95141.69;10410410;28;20565;-64
2023/03/06 13:17:35;;;;;;;17.63;10.60;;;;;;;3.43;100.00;95162.19;10411289;28;20212;-64
2023/03/06 13:22:35;;;;;;;16.57;10.30;;;;;;;3.24;100.00;95186.50;10408780;28;20359;-64
2023/03/06 13:27:52;;;;;;;17.50;10.17;;;;;;;2.76;100.00;95186.69;10411096;28;20264;-65
2023/03/06 13:32:53;;;;;;;15.37;10.03;;;;;;;2.08;100.00;95205.94;10410256;28;20290;-64
2023/03/06 13:37:54;;;;;;;16.33;9.10;;;;;;;1.47;100.00;95212.34;10410618;28;20197;-64
2023/03/06 13:43:06;;;;;;;15.27;8.60;;;;;;;1.00;100.00;95214.78;10409397;28;20228;-64
2023/03/06 13:48:21;;;;;;;14.53;9.10;;;;;;;0.81;100.00;95197.50;10411124;28;20196;-64
2023/03/06 13:53:53;;;;;;;24.17;14.53;;;;;;;0.83;100.00;95196.44;10417680;28;20339;-65
2023/03/06 13:59:14;;;;;;;15.70;9.87;;;;;;;0.56;100.00;95193.69;10418029;28;20200;-65
2023/03/06 14:04:52;;;;;;;13.97;8.63;;;;;;;-0.16;100.00;95183.41;10416195;28;20211;-66
2023/03/06 14:10:27;;;;;;;14.80;9.77;;;;;;;0.21;100.00;95184.63;10417184;28;20198;-67
2023/03/06 14:15:43;;;;;;;11.63;7.43;;;;;;;0.54;100.00;95178.34;10413758;28;20322;-66
2023/03/06 14:20:52;;;;;;;12.57;7.77;;;;;;;0.98;100.00;95175.41;10416641;28;20211;-67
2023/03/06 14:25:57;;;;;;;13.50;8.67;;;;;;;1.18;100.00;95156.41;10417356;28;20196;-65
2023/03/06 14:30:58;;;;;;;14.63;9.53;;;;;;;0.78;100.00;95162.53;10415515;28;20216;-65
2023/03/06 14:36:04;;;;;;;12.60;8.30;;;;;;;1.21;100.00;95163.88;10415429;28;20766;-64
2023/03/06 14:41:05;;;;;;;13.03;8.90;;;;;;;0.61;100.00;95169.13;10416318;28;20604;-64
2023/03/06 14:46:05;;;;;;;12.83;8.67;;;;;;;0.88;100.00;95183.94;10416615;28;20189;-63
2023/03/06 14:51:12;;;;;;;14.60;9.73;;;;;;;0.37;100.00;95189.28;10415357;28;20208;-65
2023/03/06 14:56:21;;;;;;;14.13;8.87;;;;;;;0.17;100.00;95178.94;10415113;28;20698;-65
2023/03/06 15:01:27;;;;;;;10.40;7.07;;;;;;;0.28;100.00;95183.19;10414272;28;20722;-65
2023/03/06 15:06:53;;;;;;;12.13;8.03;;;;;;;0.50;100.00;95189.88;10414645;28;20189;-64
2023/03/06 15:12:01;;;;;;;10.13;7.10;;;;;;;0.66;100.00;95187.59;10411906;28;20270;-64
2023/03/06 15:17:17;;;;;;;9.37;6.60;;;;;;;0.67;100.00;95189.25;10414957;28;20702;-62
2023/03/06 15:22:29;;;;;;;9.80;6.83;;;;;;;0.15;100.00;95173.09;10414930;28;20583;-63
2023/03/06 15:27:30;;;;;;;9.50;6.40;;;;;;;0.28;100.00;95173.69;10413375;28;20188;-62
2023/03/06 15:32:32;;;;;;;9.17;6.43;;;;;;;0.33;100.00;95176.66;10414454;28;20212;-63
2023/03/06 15:37:33;;;;;;;9.17;6.30;;;;;;;0.31;100.00;95170.84;10412859;28;20293;-63
2023/03/06 15:42:34;;;;;;;8.20;6.00;;;;;;;0.27;100.00;95174.63;10413829;28;20658;-61
2023/03/06 15:47:36;;;;;;;8.13;6.07;;;;;;;-0.04;100.00;95168.69;10414054;28;20195;-63
2023/03/06 15:52:37;;;;;;;9.30;6.23;;;;;;;0.12;100.00;95171.63;10413648;28;20216;-64
2023/03/06 15:57:40;;;;;;;8.20;5.33;;;;;;;-0.03;100.00;95178.03;10412932;28;20701;-64
2023/03/06 16:02:40;;;;;;;12.60;7.57;;;;;;;-0.13;100.00;95167.72;10411940;28;20215;-65
2023/03/06 16:07:41;;;;;;;12.23;7.80;;;;;;;-0.03;100.00;95162.59;10413045;28;20265;-63
2023/03/06 16:12:42;;;;;;;8.03;5.97;;;;;;;-0.12;100.00;95164.19;10411808;28;20213;-63
2023/03/06 16:17:43;;;;;;;10.00;7.47;;;;;;;-0.26;100.00;95169.66;10412552;28;20230;-64
2023/03/06 16:22:44;;;;;;;11.57;7.83;;;;;;;-0.19;100.00;95165.66;10412361;28;20298;-63
2023/03/06 16:27:56;;;;;;;10.47;7.33;;;;;;;-0.28;100.00;95172.38;10411758;28;20231;-63
2023/03/06 16:32:57;;;;;;;12.90;7.73;;;;;;;-0.24;100.00;95171.19;10411909;28;20212;-62
2023/03/06 16:37:58;;;;;;;11.23;8.53;;;;;;;-0.29;100.00;95175.06;10411844;28;20737;-62
2023/03/06 16:42:59;;;;;;;12.80;8.23;;;;;;;-0.25;100.00;95177.25;10411801;28;20244;-61
2023/03/06 16:47:59;;;;;;;11.80;7.90;;;;;;;-0.16;100.00;95177.44;10411548;28;20658;-61
2023/03/06 16:53:00;;;;;;;6.73;4.63;;;;;;;-0.30;100.00;95192.28;10411488;28;20603;-62
2023/03/06 16:58:00;;;;;;;4.97;3.93;;;;;;;-0.37;100.00;95204.84;10410914;28;20574;-64
2023/03/06 17:03:01;;;;;;;22.00;10.60;;;;;;;-0.52;100.00;95202.69;10411315;28;20682;-63
2023/03/06 17:08:02;;;;;;;10.93;7.63;;;;;;;-0.53;100.00;95213.94;10411017;28;20560;-63
2023/03/06 17:13:03;;;;;;;18.50;11.23;;;;;;;-0.64;100.00;95219.97;10410853;28;20303;-63
2023/03/06 17:18:04;;;;;;;15.80;10.63;;;;;;;-0.69;100.00;95222.88;10410872;28;20200;-63
2023/03/06 17:23:04;;;;;;;21.43;14.10;;;;;;;-0.94;100.00;95224.06;10410610;28;20212;-63
2023/03/06 17:28:04;;;;;;;14.97;8.57;;;;;;;-1.17;100.00;95233.59;10419308;28;20196;-62
2023/03/06 17:33:05;;;;;;;11.30;7.63;;;;;;;-1.06;100.00;95230.19;10418833;28;20212;-63
2023/03/06 17:38:05;;;;;;;14.03;8.63;;;;;;;-1.01;100.00;95238.31;10418708;28;20196;-63
2023/03/06 17:43:05;;;;;;;11.40;7.23;;;;;;;-1.05;100.00;95242.09;10418320;28;20311;-62
2023/03/06 17:48:06;;;;;;;12.43;7.40;;;;;;;-1.09;100.00;95239.78;10418222;28;20188;-63
2023/03/06 17:53:06;;;;;;;11.90;7.97;;;;;;;-1.14;100.00;95236.72;10417803;28;20232;-62
2023/03/06 17:58:07;;;;;;;13.00;8.40;;;;;;;-1.17;100.00;95234.41;10417507;28;20254;-63
2023/03/06 18:03:08;;;;;;;12.17;7.50;;;;;;;-1.08;100.00;95227.72;10417718;28;20207;-62
2023/03/06 18:08:09;;;;;;;11.40;7.10;;;;;;;-1.09;100.00;95221.78;10417623;28;20238;-63
2023/03/06 18:13:09;;;;;;;13.60;8.50;;;;;;;-1.06;100.00;95225.84;10417347;28;20640;-63
2023/03/06 18:18:10;;;;;;;13.63;8.37;;;;;;;-1.05;100.00;95236.97;10416966;28;20271;-63
2023/03/06 18:23:10;;;;;;;19.60;10.37;;;;;;;-0.98;100.00;95227.78;10417207;28;20303;-63
2023/03/06 18:28:10;;;;;;;17.13;10.13;;;;;;;-1.11;100.00;95233.91;10416746;28;20208;-63
2023/03/06 18:33:11;;;;;;;19.33;11.40;;;;;;;-1.03;100.00;95229.94;10416469;28;20227;-63
2023/03/06 18:38:12;;;;;;;15.33;9.53;;;;;;;-0.92;100.00;95230.72;10415531;28;20275;-63
2023/03/06 18:43:12;;;;;;;18.33;10.33;;;;;;;-0.98;100.00;95236.34;10438936;22;20331;-64
2023/03/06 18:48:12;;;;;;;18.70;9.53;;;;;;;-0.80;100.00;95233.22;10418566;28;20180;-64
2023/03/06 18:53:13;;;;;;;18.73;11.43;;;;;;;-0.96;100.00;95238.78;10417614;28;20216;-65
2023/03/06 18:58:13;;;;;;;19.47;10.90;;;;;;;-0.93;100.00;95236.78;10415671;28;20571;-64
2023/03/06 19:03:14;;;;;;;24.77;13.03;;;;;;;-0.88;100.00;95236.41;10415473;28;20597;-63
2023/03/06 19:08:15;;;;;;;20.47;10.93;;;;;;;-0.77;100.00;95241.50;10415286;28;20218;-64
2023/03/06 19:13:16;;;;;;;27.40;13.40;;;;;;;-0.79;100.00;95248.53;10415220;28;20616;-63
2023/03/06 19:18:16;;;;;;;27.07;14.33;;;;;;;-0.92;100.00;95242.72;10414622;28;20242;-63
2023/03/06 19:23:17;;;;;;;18.77;11.03;;;;;;;-0.82;100.00;95233.34;10414848;28;20299;-62
2023/03/06 19:28:17;;;;;;;24.27;13.93;;;;;;;-0.82;100.00;95238.50;10414402;28;20578;-63
2023/03/06 19:33:18;;;;;;;19.73;11.33;;;;;;;-0.75;100.00;95237.06;10414314;28;20216;-64
2023/03/06 19:38:18;;;;;;;22.23;11.83;;;;;;;-0.74;100.00;95230.16;10413935;28;20250;-64
2023/03/06 19:43:19;;;;;;;18.77;10.50;;;;;;;-0.82;100.00;95237.69;10413676;28;20711;-64
2023/03/06 19:48:19;;;;;;;22.50;12.17;;;;;;;-0.88;100.00;95233.84;10413599;28;20227;-62
2023/03/06 19:53:20;;;;;;;23.77;11.80;;;;;;;-0.86;100.00;95241.44;10413016;28;20228;-63
2023/03/06 19:58:20;;;;;;;19.83;11.20;;;;;;;-0.81;100.00;95236.72;10413435;28;20188;-64
2023/03/06 20:03:21;;;;;;;21.50;12.33;;;;;;;-0.99;100.00;95237.28;10412995;28;20691;-64
2023/03/06 20:08:21;;;;;;;20.23;11.90;;;;;;;-0.91;100.00;95234.09;10412774;28;20685;-64
2023/03/06 20:13:22;;;;;;;21.43;12.07;;;;;;;-0.94;100.00;95231.75;10413037;28;20761;-63
2023/03/06 20:18:22;;;;;;;23.40;11.93;;;;;;;-0.85;100.00;95228.47;10412449;28;20203;-62
2023/03/06 20:23:22;;;;;;;20.43;11.67;;;;;;;-0.83;100.00;95230.91;10412534;28;20581;-64
2023/03/06 20:28:23;;;;;;;24.03;13.60;;;;;;;-0.86;100.00;95238.88;10412028;28;20685;-63
2023/03/06 20:33:25;;;;;;;23.80;12.63;;;;;;;-0.88;100.00;95241.56;10411754;28;20569;-64
2023/03/06 20:38:25;;;;;;;22.43;12.53;;;;;;;-0.92;100.00;95241.00;10411822;28;20335;-63
2023/03/06 20:43:26;;;;;;;20.57;12.20;;;;;;;-0.95;100.00;95233.53;10411454;28;20325;-62
2023/03/06 20:48:26;;;;;;;22.73;13.27;;;;;;;-1.04;100.00;95228.28;10411475;28;20192;-63
2023/03/06 20:53:27;;;;;;;21.83;13.53;;;;;;;-1.08;100.00;95232.88;10410553;28;20279;-63
2023/03/06 20:58:30;;;;;;;20.67;12.67;;;;;;;-1.14;100.00;95228.22;10410531;28;20196;-64
2023/03/06 21:03:30;;;;;;;18.67;11.53;;;;;;;-1.22;100.00;95215.97;10411123;28;20205;-64
2023/03/06 21:08:31;;;;;;;20.07;11.87;;;;;;;-1.35;100.00;95205.03;10410746;28;20197;-61
2023/03/06 21:13:31;;;;;;;20.20;10.23;;;;;;;-1.29;100.00;95195.09;10408972;28;20303;-63
2023/03/06 21:18:31;;;;;;;20.13;11.80;;;;;;;-1.65;100.00;95197.03;10410492;28;20192;-62
2023/03/06 21:23:32;;;;;;;66.43;26.87;;;;;;;-1.74;100.00;95191.81;10410694;28;20208;-63
2023/03/06 21:28:32;;;;;;;73.83;28.43;;;;;;;-1.78;100.00;95192.97;10410794;28;20195;-64
2023/03/06 21:33:33;;;;;;;25.37;13.23;;;;;;;-1.76;100.00;95186.78;10410623;28;20221;-63
2023/03/06 21:38:34;;;;;;;23.87;12.13;;;;;;;-1.82;100.00;95182.13;10410264;28;20197;-62
2023/03/06 21:43:34;;;;;;;25.67;12.67;;;;;;;-1.77;100.00;95180.00;10410278;28;20662;-61
2023/03/06 21:48:35;;;;;;;24.13;12.43;;;;;;;-1.83;100.00;95175.34;10410090;28;20292;-64
2023/03/06 21:53:36;;;;;;;22.00;10.70;;;;;;;-1.85;100.00;95169.53;10410078;28;20220;-61
2023/03/06 21:58:36;;;;;;;21.03;10.83;;;;;;;-1.83;100.00;95171.03;10410097;28;20192;-61
2023/03/06 22:03:37;;;;;;;19.97;11.93;;;;;;;-1.92;100.00;95166.59;10410138;28;20205;-62
2023/03/06 22:08:37;;;;;;;21.30;11.83;;;;;;;-1.98;100.00;95164.50;10409904;28;20240;-64
2023/03/06 22:13:38;;;;;;;27.23;13.83;;;;;;;-1.94;100.00;95162.53;10417207;28;20219;-63
2023/03/06 22:18:38;;;;;;;21.57;12.57;;;;;;;-1.71;100.00;95166.69;10417583;28;20610;-63
2023/03/06 22:23:39;;;;;;;26.57;13.37;;;;;;;-1.76;100.00;95150.84;10417062;28;20647;-63
2023/03/06 22:28:40;;;;;;;22.20;12.77;;;;;;;-1.62;100.00;95157.47;10417280;28;20193;-62
2023/03/06 22:33:40;;;;;;;22.97;11.97;;;;;;;-1.55;100.00;95153.47;10416942;28;20224;-63
2023/03/06 22:38:43;;;;;;;22.33;12.73;;;;;;;-1.49;100.00;95140.16;10415898;28;20188;-63
2023/03/06 22:43:43;;;;;;;23.33;12.03;;;;;;;-1.58;100.00;95148.56;10416396;28;20228;-63
2023/03/06 22:48:43;;;;;;;26.73;12.70;;;;;;;-1.68;100.00;95137.41;10415695;28;20196;-63
2023/03/06 22:53:45;;;;;;;25.33;13.17;;;;;;;-1.70;100.00;95145.25;10416168;28;20217;-63
2023/03/06 22:58:46;;;;;;;31.47;14.40;;;;;;;-1.66;100.00;95145.81;10415354;28;20200;-63